<?xml version="1.0" encoding="UTF-8"?>
<gpx version="1.1" creator="2bulu-scraper" xmlns="http://www.topografix.com/GPX/1/1">
  <metadata><name>星星之火荣昌古佛山（环线）</name><desc>source: 2bulu.com trackId=83512315; exported 2026-09-01T14:50:26.137Z</desc>
    <bounds minlat="29.265352" minlon="105.5113295" maxlat="29.2760747" maxlon="105.5251977"/>
    <link href="https://www.2bulu.com/track/t-maFTjxxwYG%252Fp%252FR2KBg5Tzw%253D%253D.htm"><text>2bulu 源页面</text></link>
  </metadata>
  <wpt lat="29.2732051" lon="105.5187308"><ele>381</ele><name>
        </name></wpt>
  <wpt lat="29.2730161" lon="105.5191128"><ele>388</ele><name>
        </name></wpt>
  <wpt lat="29.2730161" lon="105.5191128"><ele>388</ele><name>古佛山走起
        </name></wpt>
  <wpt lat="29.2745325" lon="105.5217987"><ele>388</ele><name>
        </name></wpt>
  <wpt lat="29.2745325" lon="105.5217987"><ele>388</ele><name>百佛园
        </name></wpt>
  <wpt lat="29.2757352" lon="105.5238192"><ele>393</ele><name>
        </name></wpt>
  <wpt lat="29.2702769" lon="105.5179275"><ele>456</ele><name>
        </name></wpt>
  <wpt lat="29.2699274" lon="105.5178378"><ele>469</ele><name>
        </name></wpt>
  <wpt lat="29.2699274" lon="105.5178378"><ele>469</ele><name>云霄梯坎
        </name></wpt>
  <wpt lat="29.2696073" lon="105.5176001"><ele>501</ele><name>
        </name></wpt>
  <wpt lat="29.2691929" lon="105.5178397"><ele>525</ele><name>
        </name></wpt>
  <wpt lat="29.2682341" lon="105.5173019"><ele>574</ele><name>
        </name></wpt>
  <wpt lat="29.2668643" lon="105.5147699"><ele>594</ele><name>
        </name></wpt>
  <wpt lat="29.2668643" lon="105.5147699"><ele>594</ele><name>山顶到了
        </name></wpt>
  <wpt lat="29.2665212" lon="105.511636"><ele>406</ele><name>茶树旁开辟下山路
        </name></wpt>
  <wpt lat="29.2665212" lon="105.511636"><ele>406</ele><name>马上到公路，有路走的
        </name></wpt>
  <wpt lat="29.2670766" lon="105.5115694"><ele>382</ele><name>看到这个水池就对了
        </name></wpt>
  <wpt lat="29.270311" lon="105.5159807"><ele>401</ele><name>卖枇杷的，好好吃
        </name></wpt>
  <wpt lat="29.2704893" lon="105.5162394"><ele>398</ele><name>
        </name></wpt>
  <wpt lat="29.2715255" lon="105.5176612"><ele>394</ele><name>刘家小院漂亮
        </name></wpt>
  <wpt lat="29.2732893" lon="105.5186685"><ele>371</ele><name>
        </name></wpt>
  <wpt lat="29.2732893" lon="105.5186685"><ele>371</ele><name>环线完成，到达起点
        </name></wpt>
  <trk><name>星星之火荣昌古佛山（环线）</name>
      <trkseg>
        <trkpt lat="29.2732051" lon="105.5187308"><ele>381.4</ele><time>2026-05-02T17:38:24.000Z</time></trkpt>
        <trkpt lat="29.2731721" lon="105.5188221"><ele>381.4</ele><time>2026-05-02T17:38:42.000Z</time></trkpt>
        <trkpt lat="29.273128" lon="105.5189217"><ele>382.26</ele><time>2026-05-02T17:38:48.000Z</time></trkpt>
        <trkpt lat="29.2730814" lon="105.5190254"><ele>382.32</ele><time>2026-05-02T17:39:16.000Z</time></trkpt>
        <trkpt lat="29.2730161" lon="105.5191128"><ele>383.56</ele><time>2026-05-02T17:39:26.000Z</time></trkpt>
        <trkpt lat="29.2729701" lon="105.5192098"><ele>385.43</ele><time>2026-05-02T17:39:42.000Z</time></trkpt>
        <trkpt lat="29.2729148" lon="105.5193016"><ele>387.31</ele><time>2026-05-02T17:40:10.000Z</time></trkpt>
        <trkpt lat="29.2728654" lon="105.5193995"><ele>389.84</ele><time>2026-05-02T17:40:20.000Z</time></trkpt>
        <trkpt lat="29.2728974" lon="105.5195035"><ele>391.29</ele><time>2026-05-02T17:40:54.000Z</time></trkpt>
        <trkpt lat="29.2729752" lon="105.5195831"><ele>393.4</ele><time>2026-05-02T17:41:02.000Z</time></trkpt>
        <trkpt lat="29.2730639" lon="105.5196482"><ele>394.48</ele><time>2026-05-02T17:41:10.000Z</time></trkpt>
        <trkpt lat="29.2731667" lon="105.5197454"><ele>395.22</ele><time>2026-05-02T17:41:20.000Z</time></trkpt>
        <trkpt lat="29.2732639" lon="105.5198169"><ele>395.08</ele><time>2026-05-02T17:41:28.000Z</time></trkpt>
        <trkpt lat="29.2733591" lon="105.5198866"><ele>395.78</ele><time>2026-05-02T17:41:36.000Z</time></trkpt>
        <trkpt lat="29.2734162" lon="105.5199792"><ele>396.95</ele><time>2026-05-02T17:41:44.000Z</time></trkpt>
        <trkpt lat="29.2734954" lon="105.5200744"><ele>398.22</ele><time>2026-05-02T17:41:56.000Z</time></trkpt>
        <trkpt lat="29.2735718" lon="105.5201633"><ele>399.16</ele><time>2026-05-02T17:42:04.000Z</time></trkpt>
        <trkpt lat="29.2736484" lon="105.5202405"><ele>399.61</ele><time>2026-05-02T17:42:12.000Z</time></trkpt>
        <trkpt lat="29.2737125" lon="105.520336"><ele>399.69</ele><time>2026-05-02T17:42:20.000Z</time></trkpt>
        <trkpt lat="29.2737207" lon="105.5204601"><ele>398.4</ele><time>2026-05-02T17:42:28.000Z</time></trkpt>
        <trkpt lat="29.2737468" lon="105.5205802"><ele>396.72</ele><time>2026-05-02T17:42:38.000Z</time></trkpt>
        <trkpt lat="29.2737978" lon="105.5206794"><ele>395.77</ele><time>2026-05-02T17:42:46.000Z</time></trkpt>
        <trkpt lat="29.2738625" lon="105.5207826"><ele>395.74</ele><time>2026-05-02T17:42:54.000Z</time></trkpt>
        <trkpt lat="29.2739" lon="105.5209019"><ele>395.81</ele><time>2026-05-02T17:43:02.000Z</time></trkpt>
        <trkpt lat="29.2739038" lon="105.5210121"><ele>396.45</ele><time>2026-05-02T17:43:10.000Z</time></trkpt>
        <trkpt lat="29.2739011" lon="105.5211183"><ele>396.69</ele><time>2026-05-02T17:43:22.000Z</time></trkpt>
        <trkpt lat="29.2739259" lon="105.5212192"><ele>396.52</ele><time>2026-05-02T17:43:30.000Z</time></trkpt>
        <trkpt lat="29.2740012" lon="105.5212948"><ele>396.77</ele><time>2026-05-02T17:43:52.000Z</time></trkpt>
        <trkpt lat="29.2740941" lon="105.5213978"><ele>396.35</ele><time>2026-05-02T17:44:02.000Z</time></trkpt>
        <trkpt lat="29.2742143" lon="105.5214636"><ele>395.9</ele><time>2026-05-02T17:44:08.000Z</time></trkpt>
        <trkpt lat="29.2743267" lon="105.5214613"><ele>394.01</ele><time>2026-05-02T17:44:16.000Z</time></trkpt>
        <trkpt lat="29.2744196" lon="105.5214922"><ele>391.55</ele><time>2026-05-02T17:44:28.000Z</time></trkpt>
        <trkpt lat="29.274473" lon="105.5215724"><ele>389.34</ele><time>2026-05-02T17:44:36.000Z</time></trkpt>
        <trkpt lat="29.2745374" lon="105.5216487"><ele>388.76</ele><time>2026-05-02T17:44:42.000Z</time></trkpt>
        <trkpt lat="29.2745808" lon="105.5217425"><ele>388.73</ele><time>2026-05-02T17:44:50.000Z</time></trkpt>
        <trkpt lat="29.2745082" lon="105.5217578"><ele>392.59</ele><time>2026-05-02T17:44:58.000Z</time></trkpt>
        <trkpt lat="29.2744274" lon="105.5218118"><ele>395.05</ele><time>2026-05-02T17:45:18.000Z</time></trkpt>
        <trkpt lat="29.2744533" lon="105.5217781"><ele>395.5</ele><time>2026-05-02T17:45:42.000Z</time></trkpt>
        <trkpt lat="29.2745325" lon="105.5217987"><ele>393.18</ele><time>2026-05-02T17:45:54.000Z</time></trkpt>
        <trkpt lat="29.274595" lon="105.521885"><ele>391.04</ele><time>2026-05-02T17:46:08.000Z</time></trkpt>
        <trkpt lat="29.2746517" lon="105.5220011"><ele>390.55</ele><time>2026-05-02T17:46:18.000Z</time></trkpt>
        <trkpt lat="29.2746945" lon="105.5221367"><ele>390.79</ele><time>2026-05-02T17:46:28.000Z</time></trkpt>
        <trkpt lat="29.2747267" lon="105.5222608"><ele>390.62</ele><time>2026-05-02T17:46:36.000Z</time></trkpt>
        <trkpt lat="29.2747943" lon="105.5223426"><ele>390.61</ele><time>2026-05-02T17:46:44.000Z</time></trkpt>
        <trkpt lat="29.2748543" lon="105.5224254"><ele>391.04</ele><time>2026-05-02T17:46:50.000Z</time></trkpt>
        <trkpt lat="29.2748601" lon="105.5224742"><ele>391.92</ele><time>2026-05-02T17:47:08.000Z</time></trkpt>
        <trkpt lat="29.2749232" lon="105.5225201"><ele>392.82</ele><time>2026-05-02T17:47:28.000Z</time></trkpt>
        <trkpt lat="29.2750114" lon="105.5225561"><ele>391.69</ele><time>2026-05-02T17:47:36.000Z</time></trkpt>
        <trkpt lat="29.2751057" lon="105.5225761"><ele>390.02</ele><time>2026-05-02T17:47:42.000Z</time></trkpt>
        <trkpt lat="29.2752113" lon="105.5226228"><ele>388.29</ele><time>2026-05-02T17:47:48.000Z</time></trkpt>
        <trkpt lat="29.2752782" lon="105.5227047"><ele>385.97</ele><time>2026-05-02T17:47:56.000Z</time></trkpt>
        <trkpt lat="29.2753195" lon="105.5228075"><ele>383.49</ele><time>2026-05-02T17:48:04.000Z</time></trkpt>
        <trkpt lat="29.2753666" lon="105.5229057"><ele>383.15</ele><time>2026-05-02T17:48:10.000Z</time></trkpt>
        <trkpt lat="29.2754053" lon="105.5230023"><ele>383.47</ele><time>2026-05-02T17:48:20.000Z</time></trkpt>
        <trkpt lat="29.2754406" lon="105.5231049"><ele>384.69</ele><time>2026-05-02T17:48:30.000Z</time></trkpt>
        <trkpt lat="29.2754768" lon="105.5232055"><ele>386.76</ele><time>2026-05-02T17:48:44.000Z</time></trkpt>
        <trkpt lat="29.2755453" lon="105.523286"><ele>388.5</ele><time>2026-05-02T17:48:52.000Z</time></trkpt>
        <trkpt lat="29.2755883" lon="105.5233953"><ele>390.65</ele><time>2026-05-02T17:49:02.000Z</time></trkpt>
        <trkpt lat="29.2756291" lon="105.5235212"><ele>393.64</ele><time>2026-05-02T17:49:10.000Z</time></trkpt>
        <trkpt lat="29.2756509" lon="105.5236357"><ele>395.86</ele><time>2026-05-02T17:49:16.000Z</time></trkpt>
        <trkpt lat="29.2756862" lon="105.5237422"><ele>396.56</ele><time>2026-05-02T17:49:26.000Z</time></trkpt>
        <trkpt lat="29.2757352" lon="105.5238192"><ele>396.02</ele><time>2026-05-02T17:49:44.000Z</time></trkpt>
        <trkpt lat="29.2757942" lon="105.5238959"><ele>394.76</ele><time>2026-05-02T17:50:00.000Z</time></trkpt>
        <trkpt lat="29.2758647" lon="105.5239955"><ele>393.49</ele><time>2026-05-02T17:50:08.000Z</time></trkpt>
        <trkpt lat="29.275926" lon="105.5240983"><ele>391.52</ele><time>2026-05-02T17:50:14.000Z</time></trkpt>
        <trkpt lat="29.2759979" lon="105.5241814"><ele>390.18</ele><time>2026-05-02T17:50:24.000Z</time></trkpt>
        <trkpt lat="29.2760747" lon="105.5242555"><ele>389.93</ele><time>2026-05-02T17:50:36.000Z</time></trkpt>
        <trkpt lat="29.2760274" lon="105.5242857"><ele>390.09</ele><time>2026-05-02T17:50:52.000Z</time></trkpt>
        <trkpt lat="29.2759531" lon="105.5243485"><ele>391.51</ele><time>2026-05-02T17:51:10.000Z</time></trkpt>
        <trkpt lat="29.2758515" lon="105.5243784"><ele>394.35</ele><time>2026-05-02T17:51:34.000Z</time></trkpt>
        <trkpt lat="29.2758049" lon="105.5244587"><ele>397.38</ele><time>2026-05-02T17:51:50.000Z</time></trkpt>
        <trkpt lat="29.2758265" lon="105.5245515"><ele>399.88</ele><time>2026-05-02T17:52:08.000Z</time></trkpt>
        <trkpt lat="29.2758657" lon="105.5246533"><ele>402.43</ele><time>2026-05-02T17:52:18.000Z</time></trkpt>
        <trkpt lat="29.2759048" lon="105.5247617"><ele>404.22</ele><time>2026-05-02T17:52:34.000Z</time></trkpt>
        <trkpt lat="29.2759056" lon="105.5248736"><ele>406.97</ele><time>2026-05-02T17:53:00.000Z</time></trkpt>
        <trkpt lat="29.2758907" lon="105.5249945"><ele>411.37</ele><time>2026-05-02T17:53:12.000Z</time></trkpt>
        <trkpt lat="29.2758563" lon="105.5251117"><ele>415.43</ele><time>2026-05-02T17:53:26.000Z</time></trkpt>
        <trkpt lat="29.2757949" lon="105.5251977"><ele>419.2</ele><time>2026-05-02T17:53:48.000Z</time></trkpt>
        <trkpt lat="29.2757481" lon="105.5251382"><ele>423.76</ele><time>2026-05-02T17:54:24.000Z</time></trkpt>
        <trkpt lat="29.2757266" lon="105.5250257"><ele>428.55</ele><time>2026-05-02T17:54:52.000Z</time></trkpt>
        <trkpt lat="29.2756385" lon="105.5249679"><ele>433.52</ele><time>2026-05-02T17:55:02.000Z</time></trkpt>
        <trkpt lat="29.2752732" lon="105.5248699"><ele>435.7</ele><time>2026-05-02T17:55:29.000Z</time></trkpt>
        <trkpt lat="29.275099" lon="105.5249111"><ele>413.12</ele><time>2026-05-02T17:55:46.000Z</time></trkpt>
        <trkpt lat="29.2753508" lon="105.5247879"><ele>402.01</ele><time>2026-05-02T17:55:54.000Z</time></trkpt>
        <trkpt lat="29.2754961" lon="105.5246762"><ele>411.21</ele><time>2026-05-02T17:56:12.000Z</time></trkpt>
        <trkpt lat="29.275502" lon="105.5245669"><ele>420.97</ele><time>2026-05-02T17:56:30.000Z</time></trkpt>
        <trkpt lat="29.2754851" lon="105.5244534"><ele>428.73</ele><time>2026-05-02T17:56:50.000Z</time></trkpt>
        <trkpt lat="29.2754037" lon="105.5243946"><ele>434.39</ele><time>2026-05-02T17:57:08.000Z</time></trkpt>
        <trkpt lat="29.2753096" lon="105.5243353"><ele>438.57</ele><time>2026-05-02T17:57:16.000Z</time></trkpt>
        <trkpt lat="29.2752649" lon="105.5242708"><ele>441.55</ele><time>2026-05-02T17:57:32.000Z</time></trkpt>
        <trkpt lat="29.2752418" lon="105.5241768"><ele>444.32</ele><time>2026-05-02T17:57:44.000Z</time></trkpt>
        <trkpt lat="29.2751757" lon="105.5240978"><ele>445.69</ele><time>2026-05-02T17:57:54.000Z</time></trkpt>
        <trkpt lat="29.275146" lon="105.5239945"><ele>446.77</ele><time>2026-05-02T17:58:02.000Z</time></trkpt>
        <trkpt lat="29.2750987" lon="105.5238846"><ele>448.85</ele><time>2026-05-02T17:58:14.000Z</time></trkpt>
        <trkpt lat="29.2750198" lon="105.5238138"><ele>450.16</ele><time>2026-05-02T17:58:22.000Z</time></trkpt>
        <trkpt lat="29.2749536" lon="105.5237244"><ele>450.35</ele><time>2026-05-02T17:58:32.000Z</time></trkpt>
        <trkpt lat="29.2749252" lon="105.5237093"><ele>450.89</ele><time>2026-05-02T17:58:48.000Z</time></trkpt>
        <trkpt lat="29.2748608" lon="105.5236715"><ele>451.88</ele><time>2026-05-02T17:59:14.000Z</time></trkpt>
        <trkpt lat="29.2747801" lon="105.5236038"><ele>453.27</ele><time>2026-05-02T17:59:24.000Z</time></trkpt>
        <trkpt lat="29.2742086" lon="105.5240766"><ele>454.61</ele><time>2026-05-02T18:00:19.000Z</time></trkpt>
        <trkpt lat="29.2742381" lon="105.5236598"><ele>446.65</ele><time>2026-05-02T18:00:27.000Z</time></trkpt>
        <trkpt lat="29.2742868" lon="105.5233874"><ele>437.6</ele><time>2026-05-02T18:00:31.000Z</time></trkpt>
        <trkpt lat="29.2743105" lon="105.5231937"><ele>437.77</ele><time>2026-05-02T18:00:37.000Z</time></trkpt>
        <trkpt lat="29.2743194" lon="105.5230635"><ele>443.55</ele><time>2026-05-02T18:00:45.000Z</time></trkpt>
        <trkpt lat="29.2742609" lon="105.52301"><ele>449.55</ele><time>2026-05-02T18:01:01.000Z</time></trkpt>
        <trkpt lat="29.2741925" lon="105.5229401"><ele>452.93</ele><time>2026-05-02T18:01:21.000Z</time></trkpt>
        <trkpt lat="29.2741574" lon="105.5228498"><ele>453.95</ele><time>2026-05-02T18:01:33.000Z</time></trkpt>
        <trkpt lat="29.2741188" lon="105.5227573"><ele>455.78</ele><time>2026-05-02T18:01:43.000Z</time></trkpt>
        <trkpt lat="29.2740696" lon="105.5226639"><ele>458.41</ele><time>2026-05-02T18:01:53.000Z</time></trkpt>
        <trkpt lat="29.2740062" lon="105.5225779"><ele>460.21</ele><time>2026-05-02T18:02:07.000Z</time></trkpt>
        <trkpt lat="29.2739545" lon="105.5224821"><ele>459.73</ele><time>2026-05-02T18:02:23.000Z</time></trkpt>
        <trkpt lat="29.2738929" lon="105.5223999"><ele>458.6</ele><time>2026-05-02T18:02:39.000Z</time></trkpt>
        <trkpt lat="29.2738127" lon="105.5223168"><ele>457.31</ele><time>2026-05-02T18:02:49.000Z</time></trkpt>
        <trkpt lat="29.2737375" lon="105.5222278"><ele>456.7</ele><time>2026-05-02T18:03:01.000Z</time></trkpt>
        <trkpt lat="29.2736603" lon="105.5221627"><ele>456.62</ele><time>2026-05-02T18:03:15.000Z</time></trkpt>
        <trkpt lat="29.2736104" lon="105.5220702"><ele>457.64</ele><time>2026-05-02T18:03:23.000Z</time></trkpt>
        <trkpt lat="29.273612" lon="105.521959"><ele>458.23</ele><time>2026-05-02T18:03:35.000Z</time></trkpt>
        <trkpt lat="29.2736237" lon="105.5219344"><ele>458.47</ele><time>2026-05-02T18:04:05.000Z</time></trkpt>
        <trkpt lat="29.2735654" lon="105.5218979"><ele>458.27</ele><time>2026-05-02T18:04:25.000Z</time></trkpt>
        <trkpt lat="29.2735054" lon="105.5218293"><ele>459.27</ele><time>2026-05-02T18:04:51.000Z</time></trkpt>
        <trkpt lat="29.2734411" lon="105.5217525"><ele>458.68</ele><time>2026-05-02T18:04:57.000Z</time></trkpt>
        <trkpt lat="29.2733741" lon="105.52166"><ele>458.09</ele><time>2026-05-02T18:05:07.000Z</time></trkpt>
        <trkpt lat="29.2733209" lon="105.5215627"><ele>456.29</ele><time>2026-05-02T18:05:19.000Z</time></trkpt>
        <trkpt lat="29.273266" lon="105.5214662"><ele>454.83</ele><time>2026-05-02T18:05:31.000Z</time></trkpt>
        <trkpt lat="29.27322" lon="105.5213698"><ele>454.26</ele><time>2026-05-02T18:05:43.000Z</time></trkpt>
        <trkpt lat="29.2731697" lon="105.5212727"><ele>453.8</ele><time>2026-05-02T18:05:57.000Z</time></trkpt>
        <trkpt lat="29.2731034" lon="105.5211918"><ele>453.8</ele><time>2026-05-02T18:06:05.000Z</time></trkpt>
        <trkpt lat="29.2730513" lon="105.5211046"><ele>453.89</ele><time>2026-05-02T18:06:17.000Z</time></trkpt>
        <trkpt lat="29.273004" lon="105.5210141"><ele>453.85</ele><time>2026-05-02T18:06:27.000Z</time></trkpt>
        <trkpt lat="29.2729331" lon="105.5209375"><ele>454.17</ele><time>2026-05-02T18:06:35.000Z</time></trkpt>
        <trkpt lat="29.2728618" lon="105.5208498"><ele>454.44</ele><time>2026-05-02T18:06:45.000Z</time></trkpt>
        <trkpt lat="29.2728078" lon="105.5207398"><ele>454.73</ele><time>2026-05-02T18:06:53.000Z</time></trkpt>
        <trkpt lat="29.2727432" lon="105.520652"><ele>454.84</ele><time>2026-05-02T18:07:05.000Z</time></trkpt>
        <trkpt lat="29.2727015" lon="105.5205573"><ele>455.34</ele><time>2026-05-02T18:07:19.000Z</time></trkpt>
        <trkpt lat="29.2727199" lon="105.5204572"><ele>456.31</ele><time>2026-05-02T18:07:41.000Z</time></trkpt>
        <trkpt lat="29.2727026" lon="105.5203564"><ele>455.27</ele><time>2026-05-02T18:07:57.000Z</time></trkpt>
        <trkpt lat="29.2726635" lon="105.5202594"><ele>453.78</ele><time>2026-05-02T18:08:07.000Z</time></trkpt>
        <trkpt lat="29.2725925" lon="105.520193"><ele>451.64</ele><time>2026-05-02T18:08:19.000Z</time></trkpt>
        <trkpt lat="29.2725098" lon="105.5201125"><ele>450.33</ele><time>2026-05-02T18:08:33.000Z</time></trkpt>
        <trkpt lat="29.2724301" lon="105.5200251"><ele>450.19</ele><time>2026-05-02T18:08:47.000Z</time></trkpt>
        <trkpt lat="29.2723596" lon="105.5199339"><ele>450.62</ele><time>2026-05-02T18:08:57.000Z</time></trkpt>
        <trkpt lat="29.2722834" lon="105.5198516"><ele>451.39</ele><time>2026-05-02T18:09:09.000Z</time></trkpt>
        <trkpt lat="29.2722112" lon="105.5197741"><ele>451.48</ele><time>2026-05-02T18:09:17.000Z</time></trkpt>
        <trkpt lat="29.2721283" lon="105.5197007"><ele>451.45</ele><time>2026-05-02T18:09:27.000Z</time></trkpt>
        <trkpt lat="29.2720402" lon="105.5196395"><ele>451.64</ele><time>2026-05-02T18:09:37.000Z</time></trkpt>
        <trkpt lat="29.2719531" lon="105.5195837"><ele>451.75</ele><time>2026-05-02T18:09:45.000Z</time></trkpt>
        <trkpt lat="29.2718609" lon="105.5195364"><ele>451.99</ele><time>2026-05-02T18:09:53.000Z</time></trkpt>
        <trkpt lat="29.2717656" lon="105.5194789"><ele>452.29</ele><time>2026-05-02T18:10:01.000Z</time></trkpt>
        <trkpt lat="29.2716898" lon="105.5193868"><ele>452.9</ele><time>2026-05-02T18:10:09.000Z</time></trkpt>
        <trkpt lat="29.2716678" lon="105.5193509"><ele>453.2</ele><time>2026-05-02T18:10:23.000Z</time></trkpt>
        <trkpt lat="29.2716044" lon="105.5193138"><ele>452.9</ele><time>2026-05-02T18:10:31.000Z</time></trkpt>
        <trkpt lat="29.2715263" lon="105.5192479"><ele>452.38</ele><time>2026-05-02T18:10:37.000Z</time></trkpt>
        <trkpt lat="29.2714408" lon="105.5191993"><ele>451.96</ele><time>2026-05-02T18:10:47.000Z</time></trkpt>
        <trkpt lat="29.2714037" lon="105.5191104"><ele>451.89</ele><time>2026-05-02T18:11:03.000Z</time></trkpt>
        <trkpt lat="29.271379" lon="105.5190039"><ele>451.46</ele><time>2026-05-02T18:11:19.000Z</time></trkpt>
        <trkpt lat="29.2713129" lon="105.5189218"><ele>450.23</ele><time>2026-05-02T18:11:29.000Z</time></trkpt>
        <trkpt lat="29.2712386" lon="105.5188518"><ele>448.63</ele><time>2026-05-02T18:11:41.000Z</time></trkpt>
        <trkpt lat="29.2711463" lon="105.5187848"><ele>447.15</ele><time>2026-05-02T18:11:51.000Z</time></trkpt>
        <trkpt lat="29.2710498" lon="105.5187305"><ele>445.97</ele><time>2026-05-02T18:11:59.000Z</time></trkpt>
        <trkpt lat="29.2709722" lon="105.5186391"><ele>445.34</ele><time>2026-05-02T18:12:11.000Z</time></trkpt>
        <trkpt lat="29.270885" lon="105.5185555"><ele>444.8</ele><time>2026-05-02T18:12:19.000Z</time></trkpt>
        <trkpt lat="29.2708101" lon="105.5184626"><ele>445.58</ele><time>2026-05-02T18:12:27.000Z</time></trkpt>
        <trkpt lat="29.2707576" lon="105.5183441"><ele>447.48</ele><time>2026-05-02T18:12:41.000Z</time></trkpt>
        <trkpt lat="29.2706914" lon="105.5182444"><ele>450.46</ele><time>2026-05-02T18:13:01.000Z</time></trkpt>
        <trkpt lat="29.2706111" lon="105.5181698"><ele>452.54</ele><time>2026-05-02T18:13:07.000Z</time></trkpt>
        <trkpt lat="29.270547" lon="105.5180929"><ele>453.81</ele><time>2026-05-02T18:13:15.000Z</time></trkpt>
        <trkpt lat="29.2704708" lon="105.5180338"><ele>454.5</ele><time>2026-05-02T18:13:23.000Z</time></trkpt>
        <trkpt lat="29.2703758" lon="105.5179617"><ele>454.5</ele><time>2026-05-02T18:13:37.000Z</time></trkpt>
        <trkpt lat="29.2702769" lon="105.5179275"><ele>454.28</ele><time>2026-05-02T18:13:49.000Z</time></trkpt>
        <trkpt lat="29.2701829" lon="105.5179297"><ele>454.85</ele><time>2026-05-02T18:14:11.000Z</time></trkpt>
        <trkpt lat="29.2700827" lon="105.5179418"><ele>454.87</ele><time>2026-05-02T18:14:47.000Z</time></trkpt>
        <trkpt lat="29.270003" lon="105.5179006"><ele>459.14</ele><time>2026-05-02T18:15:13.000Z</time></trkpt>
        <trkpt lat="29.2699274" lon="105.5178378"><ele>462.82</ele><time>2026-05-02T18:15:27.000Z</time></trkpt>
        <trkpt lat="29.2698601" lon="105.5177638"><ele>465.31</ele><time>2026-05-02T18:15:55.000Z</time></trkpt>
        <trkpt lat="29.2697787" lon="105.5177142"><ele>471.03</ele><time>2026-05-02T18:16:19.000Z</time></trkpt>
        <trkpt lat="29.2696951" lon="105.5176526"><ele>477.21</ele><time>2026-05-02T18:16:45.000Z</time></trkpt>
        <trkpt lat="29.2696073" lon="105.5176001"><ele>484.13</ele><time>2026-05-02T18:17:09.000Z</time></trkpt>
        <trkpt lat="29.2695121" lon="105.5176001"><ele>491.22</ele><time>2026-05-02T18:17:43.000Z</time></trkpt>
        <trkpt lat="29.2694182" lon="105.5176241"><ele>495.64</ele><time>2026-05-02T18:18:23.000Z</time></trkpt>
        <trkpt lat="29.2693367" lon="105.5176838"><ele>500.1</ele><time>2026-05-02T18:18:53.000Z</time></trkpt>
        <trkpt lat="29.2692625" lon="105.5177525"><ele>505</ele><time>2026-05-02T18:19:27.000Z</time></trkpt>
        <trkpt lat="29.2691929" lon="105.5178397"><ele>510.55</ele><time>2026-05-02T18:20:03.000Z</time></trkpt>
        <trkpt lat="29.2692133" lon="105.5179325"><ele>516.77</ele><time>2026-05-02T18:20:35.000Z</time></trkpt>
        <trkpt lat="29.2691569" lon="105.5179639"><ele>522.76</ele><time>2026-05-02T18:20:55.000Z</time></trkpt>
        <trkpt lat="29.269071" lon="105.5179499"><ele>528.76</ele><time>2026-05-02T18:21:09.000Z</time></trkpt>
        <trkpt lat="29.2689707" lon="105.5179207"><ele>532.9</ele><time>2026-05-02T18:21:33.000Z</time></trkpt>
        <trkpt lat="29.2688638" lon="105.5179098"><ele>536.13</ele><time>2026-05-02T18:21:47.000Z</time></trkpt>
        <trkpt lat="29.2688278" lon="105.5179836"><ele>539.13</ele><time>2026-05-02T18:22:09.000Z</time></trkpt>
        <trkpt lat="29.2688906" lon="105.5179712"><ele>542.64</ele><time>2026-05-02T18:22:53.000Z</time></trkpt>
        <trkpt lat="29.2689188" lon="105.5180469"><ele>546.62</ele><time>2026-05-02T18:23:11.000Z</time></trkpt>
        <trkpt lat="29.2688521" lon="105.5181058"><ele>548.94</ele><time>2026-05-02T18:23:23.000Z</time></trkpt>
        <trkpt lat="29.2687865" lon="105.5180587"><ele>550.9</ele><time>2026-05-02T18:23:39.000Z</time></trkpt>
        <trkpt lat="29.2687255" lon="105.517968"><ele>552.49</ele><time>2026-05-02T18:23:55.000Z</time></trkpt>
        <trkpt lat="29.2686495" lon="105.5178906"><ele>554.6</ele><time>2026-05-02T18:24:19.000Z</time></trkpt>
        <trkpt lat="29.2685627" lon="105.5178257"><ele>555.98</ele><time>2026-05-02T18:24:37.000Z</time></trkpt>
        <trkpt lat="29.2684959" lon="105.5177399"><ele>559.17</ele><time>2026-05-02T18:24:47.000Z</time></trkpt>
        <trkpt lat="29.2684325" lon="105.5176467"><ele>562.62</ele><time>2026-05-02T18:25:03.000Z</time></trkpt>
        <trkpt lat="29.2683688" lon="105.5175561"><ele>565.71</ele><time>2026-05-02T18:25:15.000Z</time></trkpt>
        <trkpt lat="29.2683058" lon="105.5174675"><ele>567.99</ele><time>2026-05-02T18:25:27.000Z</time></trkpt>
        <trkpt lat="29.2682303" lon="105.5174038"><ele>568.68</ele><time>2026-05-02T18:25:49.000Z</time></trkpt>
        <trkpt lat="29.2682341" lon="105.5173019"><ele>569.94</ele><time>2026-05-02T18:25:59.000Z</time></trkpt>
        <trkpt lat="29.2682122" lon="105.5171984"><ele>571.77</ele><time>2026-05-02T18:26:19.000Z</time></trkpt>
        <trkpt lat="29.2681408" lon="105.5171746"><ele>573.63</ele><time>2026-05-02T18:26:47.000Z</time></trkpt>
        <trkpt lat="29.268095" lon="105.5170983"><ele>575.98</ele><time>2026-05-02T18:28:07.000Z</time></trkpt>
        <trkpt lat="29.268025" lon="105.5170233"><ele>578.06</ele><time>2026-05-02T18:29:15.000Z</time></trkpt>
        <trkpt lat="29.26795" lon="105.516945"><ele>578.68</ele><time>2026-05-02T18:29:27.000Z</time></trkpt>
        <trkpt lat="29.2679004" lon="105.5168399"><ele>579.55</ele><time>2026-05-02T18:29:37.000Z</time></trkpt>
        <trkpt lat="29.267881" lon="105.5167313"><ele>580.65</ele><time>2026-05-02T18:29:49.000Z</time></trkpt>
        <trkpt lat="29.2678649" lon="105.5166265"><ele>582.05</ele><time>2026-05-02T18:30:21.000Z</time></trkpt>
        <trkpt lat="29.2678263" lon="105.5165248"><ele>582.37</ele><time>2026-05-02T18:30:33.000Z</time></trkpt>
        <trkpt lat="29.2677543" lon="105.5164432"><ele>582.73</ele><time>2026-05-02T18:30:43.000Z</time></trkpt>
        <trkpt lat="29.2676818" lon="105.5163114"><ele>583.15</ele><time>2026-05-02T18:30:55.000Z</time></trkpt>
        <trkpt lat="29.2676426" lon="105.5161776"><ele>582.31</ele><time>2026-05-02T18:30:59.000Z</time></trkpt>
        <trkpt lat="29.267643" lon="105.5161103"><ele>581.4</ele><time>2026-05-02T18:31:09.000Z</time></trkpt>
        <trkpt lat="29.2675852" lon="105.5160261"><ele>580.88</ele><time>2026-05-02T18:31:49.000Z</time></trkpt>
        <trkpt lat="29.2675121" lon="105.5159614"><ele>581.62</ele><time>2026-05-02T18:31:53.000Z</time></trkpt>
        <trkpt lat="29.2674565" lon="105.5158782"><ele>582.99</ele><time>2026-05-02T18:32:01.000Z</time></trkpt>
        <trkpt lat="29.2673863" lon="105.5157694"><ele>584.76</ele><time>2026-05-02T18:32:11.000Z</time></trkpt>
        <trkpt lat="29.2673322" lon="105.5156951"><ele>586.41</ele><time>2026-05-02T18:32:31.000Z</time></trkpt>
        <trkpt lat="29.267311" lon="105.515565"><ele>588.26</ele><time>2026-05-02T18:32:37.000Z</time></trkpt>
        <trkpt lat="29.2672562" lon="105.5154009"><ele>588.7</ele><time>2026-05-02T18:32:41.000Z</time></trkpt>
        <trkpt lat="29.2671859" lon="105.5152644"><ele>588.83</ele><time>2026-05-02T18:32:45.000Z</time></trkpt>
        <trkpt lat="29.2670994" lon="105.515155"><ele>589.21</ele><time>2026-05-02T18:32:49.000Z</time></trkpt>
        <trkpt lat="29.2670295" lon="105.5150505"><ele>589.93</ele><time>2026-05-02T18:32:53.000Z</time></trkpt>
        <trkpt lat="29.2669772" lon="105.5149554"><ele>591.25</ele><time>2026-05-02T18:32:57.000Z</time></trkpt>
        <trkpt lat="29.2669213" lon="105.51486"><ele>592.65</ele><time>2026-05-02T18:33:05.000Z</time></trkpt>
        <trkpt lat="29.2668643" lon="105.5147699"><ele>595.34</ele><time>2026-05-02T18:33:13.000Z</time></trkpt>
        <trkpt lat="29.2668065" lon="105.5146573"><ele>594.59</ele><time>2026-05-02T18:33:27.000Z</time></trkpt>
        <trkpt lat="29.2667258" lon="105.5145797"><ele>591.93</ele><time>2026-05-02T18:33:33.000Z</time></trkpt>
        <trkpt lat="29.2667019" lon="105.5145635"><ele>589.42</ele><time>2026-05-02T18:33:45.000Z</time></trkpt>
        <trkpt lat="29.2667983" lon="105.5146517"><ele>587.09</ele><time>2026-05-02T18:34:55.000Z</time></trkpt>
        <trkpt lat="29.26683" lon="105.5147533"><ele>585.5</ele><time>2026-05-02T18:35:05.000Z</time></trkpt>
        <trkpt lat="29.2668659" lon="105.5148663"><ele>585.33</ele><time>2026-05-02T18:35:17.000Z</time></trkpt>
        <trkpt lat="29.2669206" lon="105.5149671"><ele>585.96</ele><time>2026-05-02T18:35:27.000Z</time></trkpt>
        <trkpt lat="29.2669861" lon="105.5150616"><ele>586.41</ele><time>2026-05-02T18:35:37.000Z</time></trkpt>
        <trkpt lat="29.2670437" lon="105.5151479"><ele>586.79</ele><time>2026-05-02T18:35:45.000Z</time></trkpt>
        <trkpt lat="29.2671011" lon="105.5152291"><ele>586.92</ele><time>2026-05-02T18:35:53.000Z</time></trkpt>
        <trkpt lat="29.2671681" lon="105.5153167"><ele>586.78</ele><time>2026-05-02T18:36:03.000Z</time></trkpt>
        <trkpt lat="29.2672412" lon="105.5154023"><ele>586.53</ele><time>2026-05-02T18:36:13.000Z</time></trkpt>
        <trkpt lat="29.2672932" lon="105.5154973"><ele>586.05</ele><time>2026-05-02T18:36:23.000Z</time></trkpt>
        <trkpt lat="29.2673383" lon="105.5155945"><ele>585.29</ele><time>2026-05-02T18:36:33.000Z</time></trkpt>
        <trkpt lat="29.2673502" lon="105.5156996"><ele>584.87</ele><time>2026-05-02T18:36:45.000Z</time></trkpt>
        <trkpt lat="29.2674048" lon="105.5157846"><ele>585.31</ele><time>2026-05-02T18:36:57.000Z</time></trkpt>
        <trkpt lat="29.2674433" lon="105.5158793"><ele>585.69</ele><time>2026-05-02T18:37:05.000Z</time></trkpt>
        <trkpt lat="29.2674986" lon="105.5159594"><ele>586.21</ele><time>2026-05-02T18:37:29.000Z</time></trkpt>
        <trkpt lat="29.2674717" lon="105.515835"><ele>586.55</ele><time>2026-05-02T18:39:07.000Z</time></trkpt>
        <trkpt lat="29.267405" lon="105.5157467"><ele>586.23</ele><time>2026-05-02T18:39:21.000Z</time></trkpt>
        <trkpt lat="29.2673369" lon="105.5156668"><ele>586.69</ele><time>2026-05-02T18:39:43.000Z</time></trkpt>
        <trkpt lat="29.2673239" lon="105.515564"><ele>587.43</ele><time>2026-05-02T18:39:53.000Z</time></trkpt>
        <trkpt lat="29.2672792" lon="105.5154703"><ele>587.03</ele><time>2026-05-02T18:40:05.000Z</time></trkpt>
        <trkpt lat="29.2672352" lon="105.5153656"><ele>586.46</ele><time>2026-05-02T18:40:15.000Z</time></trkpt>
        <trkpt lat="29.2671641" lon="105.5152768"><ele>586.39</ele><time>2026-05-02T18:40:25.000Z</time></trkpt>
        <trkpt lat="29.2670969" lon="105.515192"><ele>586.91</ele><time>2026-05-02T18:40:33.000Z</time></trkpt>
        <trkpt lat="29.2670326" lon="105.5150893"><ele>587.16</ele><time>2026-05-02T18:40:43.000Z</time></trkpt>
        <trkpt lat="29.2669737" lon="105.5149971"><ele>587.44</ele><time>2026-05-02T18:40:51.000Z</time></trkpt>
        <trkpt lat="29.2669007" lon="105.5149108"><ele>587.29</ele><time>2026-05-02T18:41:01.000Z</time></trkpt>
        <trkpt lat="29.2668548" lon="105.5148051"><ele>586.95</ele><time>2026-05-02T18:41:09.000Z</time></trkpt>
        <trkpt lat="29.2668233" lon="105.5147031"><ele>587.19</ele><time>2026-05-02T18:41:17.000Z</time></trkpt>
        <trkpt lat="29.2667746" lon="105.5146084"><ele>586.89</ele><time>2026-05-02T18:41:27.000Z</time></trkpt>
        <trkpt lat="29.2667445" lon="105.5145704"><ele>585.48</ele><time>2026-05-02T18:41:39.000Z</time></trkpt>
        <trkpt lat="29.2666563" lon="105.5146029"><ele>584.58</ele><time>2026-05-02T18:42:15.000Z</time></trkpt>
        <trkpt lat="29.2665936" lon="105.5145515"><ele>583.34</ele><time>2026-05-02T18:42:31.000Z</time></trkpt>
        <trkpt lat="29.2666217" lon="105.5144676"><ele>580.18</ele><time>2026-05-02T18:42:39.000Z</time></trkpt>
        <trkpt lat="29.2666343" lon="105.5144236"><ele>577.44</ele><time>2026-05-02T18:42:49.000Z</time></trkpt>
        <trkpt lat="29.2665685" lon="105.5144431"><ele>575.57</ele><time>2026-05-02T18:42:59.000Z</time></trkpt>
        <trkpt lat="29.2665376" lon="105.5143436"><ele>573.48</ele><time>2026-05-02T18:43:05.000Z</time></trkpt>
        <trkpt lat="29.2665063" lon="105.5142104"><ele>570.22</ele><time>2026-05-02T18:43:09.000Z</time></trkpt>
        <trkpt lat="29.2664524" lon="105.5140832"><ele>565.39</ele><time>2026-05-02T18:43:13.000Z</time></trkpt>
        <trkpt lat="29.266385" lon="105.5139461"><ele>560.53</ele><time>2026-05-02T18:43:17.000Z</time></trkpt>
        <trkpt lat="29.2663578" lon="105.5137909"><ele>557.38</ele><time>2026-05-02T18:43:25.000Z</time></trkpt>
        <trkpt lat="29.2663429" lon="105.5136408"><ele>555.75</ele><time>2026-05-02T18:43:29.000Z</time></trkpt>
        <trkpt lat="29.2663335" lon="105.5135231"><ele>554.14</ele><time>2026-05-02T18:43:33.000Z</time></trkpt>
        <trkpt lat="29.2663134" lon="105.5133879"><ele>551.67</ele><time>2026-05-02T18:43:41.000Z</time></trkpt>
        <trkpt lat="29.2662846" lon="105.5132737"><ele>548.84</ele><time>2026-05-02T18:43:53.000Z</time></trkpt>
        <trkpt lat="29.266324" lon="105.5131737"><ele>544.09</ele><time>2026-05-02T18:44:01.000Z</time></trkpt>
        <trkpt lat="29.2663575" lon="105.5131128"><ele>540.91</ele><time>2026-05-02T18:44:15.000Z</time></trkpt>
        <trkpt lat="29.2663014" lon="105.5131338"><ele>537.9</ele><time>2026-05-02T18:44:29.000Z</time></trkpt>
        <trkpt lat="29.2662186" lon="105.5130679"><ele>536.56</ele><time>2026-05-02T18:44:37.000Z</time></trkpt>
        <trkpt lat="29.266144" lon="105.5129767"><ele>533.53</ele><time>2026-05-02T18:44:43.000Z</time></trkpt>
        <trkpt lat="29.266116" lon="105.5128692"><ele>530.98</ele><time>2026-05-02T18:44:57.000Z</time></trkpt>
        <trkpt lat="29.2660615" lon="105.5127704"><ele>528.23</ele><time>2026-05-02T18:45:05.000Z</time></trkpt>
        <trkpt lat="29.2660243" lon="105.5126631"><ele>525.64</ele><time>2026-05-02T18:45:09.000Z</time></trkpt>
        <trkpt lat="29.2659663" lon="105.5125734"><ele>523.13</ele><time>2026-05-02T18:45:17.000Z</time></trkpt>
        <trkpt lat="29.2658914" lon="105.5125385"><ele>520.19</ele><time>2026-05-02T18:45:39.000Z</time></trkpt>
        <trkpt lat="29.2657998" lon="105.5124917"><ele>518</ele><time>2026-05-02T18:45:47.000Z</time></trkpt>
        <trkpt lat="29.265701" lon="105.5124323"><ele>515.94</ele><time>2026-05-02T18:45:55.000Z</time></trkpt>
        <trkpt lat="29.2656098" lon="105.512371"><ele>513.47</ele><time>2026-05-02T18:46:07.000Z</time></trkpt>
        <trkpt lat="29.2655203" lon="105.5123366"><ele>511.55</ele><time>2026-05-02T18:46:29.000Z</time></trkpt>
        <trkpt lat="29.2655755" lon="105.5123536"><ele>509.42</ele><time>2026-05-02T18:47:01.000Z</time></trkpt>
        <trkpt lat="29.2656637" lon="105.5124142"><ele>507.69</ele><time>2026-05-02T18:47:11.000Z</time></trkpt>
        <trkpt lat="29.2657586" lon="105.5124759"><ele>507.61</ele><time>2026-05-02T18:47:19.000Z</time></trkpt>
        <trkpt lat="29.2658486" lon="105.5125501"><ele>507.73</ele><time>2026-05-02T18:47:27.000Z</time></trkpt>
        <trkpt lat="29.2658894" lon="105.5125826"><ele>508.49</ele><time>2026-05-02T18:47:39.000Z</time></trkpt>
        <trkpt lat="29.2659633" lon="105.5126106"><ele>510.73</ele><time>2026-05-02T18:47:51.000Z</time></trkpt>
        <trkpt lat="29.2660185" lon="105.5126519"><ele>512.4</ele><time>2026-05-02T18:48:03.000Z</time></trkpt>
        <trkpt lat="29.2660573" lon="105.5127453"><ele>514.12</ele><time>2026-05-02T18:48:19.000Z</time></trkpt>
        <trkpt lat="29.2660932" lon="105.5128575"><ele>517.04</ele><time>2026-05-02T18:48:27.000Z</time></trkpt>
        <trkpt lat="29.2661317" lon="105.5129724"><ele>519.73</ele><time>2026-05-02T18:48:35.000Z</time></trkpt>
        <trkpt lat="29.2661807" lon="105.5130731"><ele>521.83</ele><time>2026-05-02T18:48:41.000Z</time></trkpt>
        <trkpt lat="29.2662402" lon="105.5131621"><ele>525.17</ele><time>2026-05-02T18:48:53.000Z</time></trkpt>
        <trkpt lat="29.266293" lon="105.5132518"><ele>529.48</ele><time>2026-05-02T18:49:05.000Z</time></trkpt>
        <trkpt lat="29.2663012" lon="105.5133611"><ele>532.85</ele><time>2026-05-02T18:49:15.000Z</time></trkpt>
        <trkpt lat="29.2663132" lon="105.5134741"><ele>535.15</ele><time>2026-05-02T18:49:33.000Z</time></trkpt>
        <trkpt lat="29.2663076" lon="105.5134248"><ele>537.58</ele><time>2026-05-02T18:50:09.000Z</time></trkpt>
        <trkpt lat="29.2663104" lon="105.5133155"><ele>538.71</ele><time>2026-05-02T18:50:23.000Z</time></trkpt>
        <trkpt lat="29.2662841" lon="105.5132003"><ele>538.83</ele><time>2026-05-02T18:50:47.000Z</time></trkpt>
        <trkpt lat="29.2662287" lon="105.5131046"><ele>537.66</ele><time>2026-05-02T18:51:01.000Z</time></trkpt>
        <trkpt lat="29.2661669" lon="105.5130103"><ele>535.7</ele><time>2026-05-02T18:51:19.000Z</time></trkpt>
        <trkpt lat="29.2660916" lon="105.5129155"><ele>533.29</ele><time>2026-05-02T18:51:31.000Z</time></trkpt>
        <trkpt lat="29.2660606" lon="105.5128098"><ele>530.63</ele><time>2026-05-02T18:51:53.000Z</time></trkpt>
        <trkpt lat="29.2660036" lon="105.5127217"><ele>527.26</ele><time>2026-05-02T18:52:01.000Z</time></trkpt>
        <trkpt lat="29.2659756" lon="105.5126233"><ele>524.74</ele><time>2026-05-02T18:52:19.000Z</time></trkpt>
        <trkpt lat="29.2659176" lon="105.5125482"><ele>521.54</ele><time>2026-05-02T18:52:29.000Z</time></trkpt>
        <trkpt lat="29.2658284" lon="105.5124981"><ele>519.11</ele><time>2026-05-02T18:52:49.000Z</time></trkpt>
        <trkpt lat="29.2657364" lon="105.5124423"><ele>516.87</ele><time>2026-05-02T18:52:59.000Z</time></trkpt>
        <trkpt lat="29.2656481" lon="105.5123798"><ele>515.51</ele><time>2026-05-02T18:53:13.000Z</time></trkpt>
        <trkpt lat="29.2655561" lon="105.5123393"><ele>513.44</ele><time>2026-05-02T18:53:23.000Z</time></trkpt>
        <trkpt lat="29.2654609" lon="105.5123356"><ele>511.53</ele><time>2026-05-02T18:54:05.000Z</time></trkpt>
        <trkpt lat="29.2653963" lon="105.5122727"><ele>509.41</ele><time>2026-05-02T18:54:33.000Z</time></trkpt>
        <trkpt lat="29.265352" lon="105.5121618"><ele>505.79</ele><time>2026-05-02T18:55:19.000Z</time></trkpt>
        <trkpt lat="29.2653625" lon="105.5120476"><ele>501.84</ele><time>2026-05-02T18:56:17.000Z</time></trkpt>
        <trkpt lat="29.2654337" lon="105.5120549"><ele>497.26</ele><time>2026-05-02T18:56:47.000Z</time></trkpt>
        <trkpt lat="29.2655244" lon="105.5120296"><ele>492.89</ele><time>2026-05-02T18:57:29.000Z</time></trkpt>
        <trkpt lat="29.265623" lon="105.5120559"><ele>487.47</ele><time>2026-05-02T18:57:39.000Z</time></trkpt>
        <trkpt lat="29.2656467" lon="105.5120823"><ele>481.38</ele><time>2026-05-02T18:57:47.000Z</time></trkpt>
        <trkpt lat="29.2657217" lon="105.5120983"><ele>477.6</ele><time>2026-05-02T19:00:41.000Z</time></trkpt>
        <trkpt lat="29.2657817" lon="105.5120217"><ele>475.62</ele><time>2026-05-02T19:01:29.000Z</time></trkpt>
        <trkpt lat="29.2658713" lon="105.5120437"><ele>472.04</ele><time>2026-05-02T19:02:21.000Z</time></trkpt>
        <trkpt lat="29.2659674" lon="105.5120369"><ele>466.3</ele><time>2026-05-02T19:02:55.000Z</time></trkpt>
        <trkpt lat="29.2660595" lon="105.5120204"><ele>461.14</ele><time>2026-05-02T19:03:41.000Z</time></trkpt>
        <trkpt lat="29.266102" lon="105.5119386"><ele>456.13</ele><time>2026-05-02T19:04:35.000Z</time></trkpt>
        <trkpt lat="29.266176" lon="105.511928"><ele>449.92</ele><time>2026-05-02T19:05:13.000Z</time></trkpt>
        <trkpt lat="29.2662629" lon="105.5119309"><ele>444.11</ele><time>2026-05-02T19:05:45.000Z</time></trkpt>
        <trkpt lat="29.2663603" lon="105.5119417"><ele>439.54</ele><time>2026-05-02T19:06:09.000Z</time></trkpt>
        <trkpt lat="29.266393" lon="105.5118696"><ele>435.44</ele><time>2026-05-02T19:06:29.000Z</time></trkpt>
        <trkpt lat="29.2664687" lon="105.5118311"><ele>430.39</ele><time>2026-05-02T19:06:49.000Z</time></trkpt>
        <trkpt lat="29.2665467" lon="105.511865"><ele>425.06</ele><time>2026-05-02T19:07:03.000Z</time></trkpt>
        <trkpt lat="29.266556" lon="105.511799"><ele>419.92</ele><time>2026-05-02T19:07:17.000Z</time></trkpt>
        <trkpt lat="29.266566" lon="105.5116926"><ele>415.69</ele><time>2026-05-02T19:07:33.000Z</time></trkpt>
        <trkpt lat="29.2665007" lon="105.511605"><ele>411.52</ele><time>2026-05-02T19:08:27.000Z</time></trkpt>
        <trkpt lat="29.2665212" lon="105.511636"><ele>408.72</ele><time>2026-05-02T19:09:05.000Z</time></trkpt>
        <trkpt lat="29.2665883" lon="105.5115867"><ele>407.42</ele><time>2026-05-02T19:11:17.000Z</time></trkpt>
        <trkpt lat="29.2666783" lon="105.51161"><ele>406.16</ele><time>2026-05-02T19:11:41.000Z</time></trkpt>
        <trkpt lat="29.2667528" lon="105.5115572"><ele>402.78</ele><time>2026-05-02T19:12:09.000Z</time></trkpt>
        <trkpt lat="29.2668387" lon="105.5115398"><ele>398.92</ele><time>2026-05-02T19:12:31.000Z</time></trkpt>
        <trkpt lat="29.2669293" lon="105.5115405"><ele>394.61</ele><time>2026-05-02T19:13:19.000Z</time></trkpt>
        <trkpt lat="29.2670015" lon="105.5115966"><ele>390.35</ele><time>2026-05-02T19:13:29.000Z</time></trkpt>
        <trkpt lat="29.2670766" lon="105.5115694"><ele>387.92</ele><time>2026-05-02T19:13:43.000Z</time></trkpt>
        <trkpt lat="29.2671598" lon="105.5115119"><ele>385.42</ele><time>2026-05-02T19:14:27.000Z</time></trkpt>
        <trkpt lat="29.2671737" lon="105.5114071"><ele>382.31</ele><time>2026-05-02T19:14:37.000Z</time></trkpt>
        <trkpt lat="29.2672407" lon="105.5113295"><ele>379.81</ele><time>2026-05-02T19:14:53.000Z</time></trkpt>
        <trkpt lat="29.2673171" lon="105.5113713"><ele>378.6</ele><time>2026-05-02T19:15:01.000Z</time></trkpt>
        <trkpt lat="29.2674059" lon="105.5114511"><ele>378.95</ele><time>2026-05-02T19:15:11.000Z</time></trkpt>
        <trkpt lat="29.2675145" lon="105.5115148"><ele>378.45</ele><time>2026-05-02T19:15:23.000Z</time></trkpt>
        <trkpt lat="29.2676091" lon="105.5115624"><ele>374.26</ele><time>2026-05-02T19:15:29.000Z</time></trkpt>
        <trkpt lat="29.2677043" lon="105.5116309"><ele>370.83</ele><time>2026-05-02T19:15:47.000Z</time></trkpt>
        <trkpt lat="29.2677883" lon="105.5116556"><ele>368.07</ele><time>2026-05-02T19:16:03.000Z</time></trkpt>
        <trkpt lat="29.2678644" lon="105.5117306"><ele>365.24</ele><time>2026-05-02T19:16:45.000Z</time></trkpt>
        <trkpt lat="29.2679431" lon="105.5118108"><ele>364.19</ele><time>2026-05-02T19:16:53.000Z</time></trkpt>
        <trkpt lat="29.2679885" lon="105.5119173"><ele>363.64</ele><time>2026-05-02T19:17:03.000Z</time></trkpt>
        <trkpt lat="29.2680595" lon="105.5120096"><ele>364.18</ele><time>2026-05-02T19:17:13.000Z</time></trkpt>
        <trkpt lat="29.2681342" lon="105.5120997"><ele>365.61</ele><time>2026-05-02T19:17:23.000Z</time></trkpt>
        <trkpt lat="29.2681975" lon="105.512186"><ele>366.64</ele><time>2026-05-02T19:17:31.000Z</time></trkpt>
        <trkpt lat="29.268265" lon="105.5122735"><ele>367.61</ele><time>2026-05-02T19:17:41.000Z</time></trkpt>
        <trkpt lat="29.2683243" lon="105.5123741"><ele>368.25</ele><time>2026-05-02T19:17:55.000Z</time></trkpt>
        <trkpt lat="29.2683932" lon="105.5124494"><ele>369.13</ele><time>2026-05-02T19:18:01.000Z</time></trkpt>
        <trkpt lat="29.2684523" lon="105.5125424"><ele>369.59</ele><time>2026-05-02T19:18:15.000Z</time></trkpt>
        <trkpt lat="29.26851" lon="105.5126265"><ele>370.8</ele><time>2026-05-02T19:18:23.000Z</time></trkpt>
        <trkpt lat="29.2685651" lon="105.512712"><ele>371.45</ele><time>2026-05-02T19:18:29.000Z</time></trkpt>
        <trkpt lat="29.2686157" lon="105.5128133"><ele>372.54</ele><time>2026-05-02T19:18:39.000Z</time></trkpt>
        <trkpt lat="29.2686713" lon="105.5129041"><ele>374.72</ele><time>2026-05-02T19:18:49.000Z</time></trkpt>
        <trkpt lat="29.2687353" lon="105.5129978"><ele>376.17</ele><time>2026-05-02T19:18:59.000Z</time></trkpt>
        <trkpt lat="29.2688199" lon="105.5129987"><ele>376.96</ele><time>2026-05-02T19:19:11.000Z</time></trkpt>
        <trkpt lat="29.2689103" lon="105.5130183"><ele>377.97</ele><time>2026-05-02T19:19:23.000Z</time></trkpt>
        <trkpt lat="29.2689788" lon="105.513081"><ele>378.67</ele><time>2026-05-02T19:19:43.000Z</time></trkpt>
        <trkpt lat="29.2690308" lon="105.5131712"><ele>376.14</ele><time>2026-05-02T19:19:57.000Z</time></trkpt>
        <trkpt lat="29.2690875" lon="105.5132661"><ele>374.23</ele><time>2026-05-02T19:20:07.000Z</time></trkpt>
        <trkpt lat="29.269142" lon="105.5133705"><ele>373.4</ele><time>2026-05-02T19:20:15.000Z</time></trkpt>
        <trkpt lat="29.2690847" lon="105.5134443"><ele>373.1</ele><time>2026-05-02T19:20:27.000Z</time></trkpt>
        <trkpt lat="29.2689919" lon="105.5134868"><ele>374.18</ele><time>2026-05-02T19:20:37.000Z</time></trkpt>
        <trkpt lat="29.2689902" lon="105.5135728"><ele>375.91</ele><time>2026-05-02T19:20:49.000Z</time></trkpt>
        <trkpt lat="29.2689881" lon="105.5136781"><ele>378.53</ele><time>2026-05-02T19:21:03.000Z</time></trkpt>
        <trkpt lat="29.2690288" lon="105.5137718"><ele>380.62</ele><time>2026-05-02T19:21:07.000Z</time></trkpt>
        <trkpt lat="29.2690853" lon="105.5138757"><ele>381.86</ele><time>2026-05-02T19:21:11.000Z</time></trkpt>
        <trkpt lat="29.2691609" lon="105.5139832"><ele>383.13</ele><time>2026-05-02T19:21:15.000Z</time></trkpt>
        <trkpt lat="29.2692247" lon="105.5140988"><ele>384.83</ele><time>2026-05-02T19:21:19.000Z</time></trkpt>
        <trkpt lat="29.2692769" lon="105.5142043"><ele>386.63</ele><time>2026-05-02T19:21:27.000Z</time></trkpt>
        <trkpt lat="29.2692742" lon="105.5142477"><ele>387.73</ele><time>2026-05-02T19:21:45.000Z</time></trkpt>
        <trkpt lat="29.2693118" lon="105.514335"><ele>388.28</ele><time>2026-05-02T19:21:57.000Z</time></trkpt>
        <trkpt lat="29.2693599" lon="105.514438"><ele>388.07</ele><time>2026-05-02T19:22:05.000Z</time></trkpt>
        <trkpt lat="29.2694162" lon="105.5145262"><ele>388.21</ele><time>2026-05-02T19:22:13.000Z</time></trkpt>
        <trkpt lat="29.2694835" lon="105.5146191"><ele>389.37</ele><time>2026-05-02T19:22:25.000Z</time></trkpt>
        <trkpt lat="29.26952" lon="105.5146989"><ele>391.96</ele><time>2026-05-02T19:22:39.000Z</time></trkpt>
        <trkpt lat="29.2695683" lon="105.5147767"><ele>393.57</ele><time>2026-05-02T19:25:23.000Z</time></trkpt>
        <trkpt lat="29.2696" lon="105.5148833"><ele>394.36</ele><time>2026-05-02T19:25:35.000Z</time></trkpt>
        <trkpt lat="29.2696796" lon="105.5149463"><ele>394.42</ele><time>2026-05-02T19:26:23.000Z</time></trkpt>
        <trkpt lat="29.2697587" lon="105.5150015"><ele>394.84</ele><time>2026-05-02T19:26:33.000Z</time></trkpt>
        <trkpt lat="29.2697727" lon="105.5150954"><ele>394.95</ele><time>2026-05-02T19:26:51.000Z</time></trkpt>
        <trkpt lat="29.2698039" lon="105.5151904"><ele>394.33</ele><time>2026-05-02T19:27:05.000Z</time></trkpt>
        <trkpt lat="29.2698666" lon="105.5152632"><ele>393.84</ele><time>2026-05-02T19:27:13.000Z</time></trkpt>
        <trkpt lat="29.2699553" lon="105.5153072"><ele>393.61</ele><time>2026-05-02T19:27:25.000Z</time></trkpt>
        <trkpt lat="29.2700158" lon="105.5152437"><ele>394.47</ele><time>2026-05-02T19:27:41.000Z</time></trkpt>
        <trkpt lat="29.2700362" lon="105.5152957"><ele>394.7</ele><time>2026-05-02T19:28:05.000Z</time></trkpt>
        <trkpt lat="29.2700825" lon="105.5153807"><ele>396.03</ele><time>2026-05-02T19:28:25.000Z</time></trkpt>
        <trkpt lat="29.2701281" lon="105.51548"><ele>396.58</ele><time>2026-05-02T19:29:07.000Z</time></trkpt>
        <trkpt lat="29.2701483" lon="105.5155889"><ele>396.63</ele><time>2026-05-02T19:29:49.000Z</time></trkpt>
        <trkpt lat="29.2701754" lon="105.5157038"><ele>397.13</ele><time>2026-05-02T19:30:01.000Z</time></trkpt>
        <trkpt lat="29.2702115" lon="105.515809"><ele>396.95</ele><time>2026-05-02T19:30:25.000Z</time></trkpt>
        <trkpt lat="29.2702487" lon="105.5159069"><ele>397.92</ele><time>2026-05-02T19:30:37.000Z</time></trkpt>
        <trkpt lat="29.270311" lon="105.5159807"><ele>399.03</ele><time>2026-05-02T19:30:45.000Z</time></trkpt>
        <trkpt lat="29.2703735" lon="105.5160597"><ele>399.75</ele><time>2026-05-02T19:31:01.000Z</time></trkpt>
        <trkpt lat="29.2704346" lon="105.5161472"><ele>400.16</ele><time>2026-05-02T19:31:11.000Z</time></trkpt>
        <trkpt lat="29.2704893" lon="105.5162394"><ele>399.87</ele><time>2026-05-02T19:31:21.000Z</time></trkpt>
        <trkpt lat="29.2705401" lon="105.516332"><ele>399.15</ele><time>2026-05-02T19:31:35.000Z</time></trkpt>
        <trkpt lat="29.2705947" lon="105.5164194"><ele>399.17</ele><time>2026-05-02T19:31:47.000Z</time></trkpt>
        <trkpt lat="29.2706447" lon="105.5165146"><ele>398.28</ele><time>2026-05-02T19:31:55.000Z</time></trkpt>
        <trkpt lat="29.2707105" lon="105.5166066"><ele>397.3</ele><time>2026-05-02T19:32:07.000Z</time></trkpt>
        <trkpt lat="29.270751" lon="105.5167147"><ele>395.11</ele><time>2026-05-02T19:32:47.000Z</time></trkpt>
        <trkpt lat="29.270799" lon="105.5168186"><ele>395.4</ele><time>2026-05-02T19:32:57.000Z</time></trkpt>
        <trkpt lat="29.2708633" lon="105.5169063"><ele>396.44</ele><time>2026-05-02T19:33:09.000Z</time></trkpt>
        <trkpt lat="29.2709262" lon="105.5169953"><ele>396.25</ele><time>2026-05-02T19:33:19.000Z</time></trkpt>
        <trkpt lat="29.2709864" lon="105.5170781"><ele>395.97</ele><time>2026-05-02T19:33:29.000Z</time></trkpt>
        <trkpt lat="29.2710353" lon="105.5171652"><ele>394.91</ele><time>2026-05-02T19:33:43.000Z</time></trkpt>
        <trkpt lat="29.2710925" lon="105.5172444"><ele>394</ele><time>2026-05-02T19:33:51.000Z</time></trkpt>
        <trkpt lat="29.2711408" lon="105.5173445"><ele>392.62</ele><time>2026-05-02T19:34:01.000Z</time></trkpt>
        <trkpt lat="29.2712033" lon="105.5174402"><ele>391.58</ele><time>2026-05-02T19:34:09.000Z</time></trkpt>
        <trkpt lat="29.2712739" lon="105.5175184"><ele>390.34</ele><time>2026-05-02T19:34:17.000Z</time></trkpt>
        <trkpt lat="29.2713493" lon="105.5176024"><ele>390.37</ele><time>2026-05-02T19:34:25.000Z</time></trkpt>
        <trkpt lat="29.2713808" lon="105.5176619"><ele>390.94</ele><time>2026-05-02T19:34:37.000Z</time></trkpt>
        <trkpt lat="29.2714568" lon="105.5176987"><ele>391.27</ele><time>2026-05-02T19:34:55.000Z</time></trkpt>
        <trkpt lat="29.27154" lon="105.5176648"><ele>392.01</ele><time>2026-05-02T19:35:19.000Z</time></trkpt>
        <trkpt lat="29.2715906" lon="105.5176221"><ele>392.7</ele><time>2026-05-02T19:35:33.000Z</time></trkpt>
        <trkpt lat="29.2715255" lon="105.5176612"><ele>392.61</ele><time>2026-05-02T19:35:59.000Z</time></trkpt>
        <trkpt lat="29.2715245" lon="105.5177559"><ele>393.04</ele><time>2026-05-02T19:36:21.000Z</time></trkpt>
        <trkpt lat="29.2715752" lon="105.5178567"><ele>394.31</ele><time>2026-05-02T19:36:29.000Z</time></trkpt>
        <trkpt lat="29.2716474" lon="105.5179465"><ele>394.69</ele><time>2026-05-02T19:36:37.000Z</time></trkpt>
        <trkpt lat="29.2717186" lon="105.5180308"><ele>394.35</ele><time>2026-05-02T19:36:45.000Z</time></trkpt>
        <trkpt lat="29.2717955" lon="105.5181247"><ele>393.77</ele><time>2026-05-02T19:36:55.000Z</time></trkpt>
        <trkpt lat="29.2718694" lon="105.5181981"><ele>392.88</ele><time>2026-05-02T19:37:15.000Z</time></trkpt>
        <trkpt lat="29.2719687" lon="105.5182899"><ele>391.47</ele><time>2026-05-02T19:37:21.000Z</time></trkpt>
        <trkpt lat="29.2721007" lon="105.5183702"><ele>390.58</ele><time>2026-05-02T19:37:25.000Z</time></trkpt>
        <trkpt lat="29.2722231" lon="105.5184121"><ele>389.86</ele><time>2026-05-02T19:37:31.000Z</time></trkpt>
        <trkpt lat="29.272353" lon="105.518449"><ele>389.14</ele><time>2026-05-02T19:37:37.000Z</time></trkpt>
        <trkpt lat="29.2724836" lon="105.51847"><ele>388.61</ele><time>2026-05-02T19:37:41.000Z</time></trkpt>
        <trkpt lat="29.2725948" lon="105.5184992"><ele>387.23</ele><time>2026-05-02T19:37:45.000Z</time></trkpt>
        <trkpt lat="29.2726972" lon="105.5185206"><ele>385.32</ele><time>2026-05-02T19:37:51.000Z</time></trkpt>
        <trkpt lat="29.2727858" lon="105.5185584"><ele>382.95</ele><time>2026-05-02T19:37:55.000Z</time></trkpt>
        <trkpt lat="29.2729016" lon="105.5186002"><ele>380.69</ele><time>2026-05-02T19:37:59.000Z</time></trkpt>
        <trkpt lat="29.2730111" lon="105.5186405"><ele>378.54</ele><time>2026-05-02T19:38:03.000Z</time></trkpt>
        <trkpt lat="29.2731124" lon="105.5186497"><ele>376.46</ele><time>2026-05-02T19:38:09.000Z</time></trkpt>
        <trkpt lat="29.2732106" lon="105.5186435"><ele>374.5</ele><time>2026-05-02T19:38:17.000Z</time></trkpt>
        <trkpt lat="29.2732893" lon="105.5186685"><ele>373.38</ele><time>2026-05-02T19:38:45.000Z</time></trkpt>
        <trkpt lat="29.2732893" lon="105.5186685"><ele>373.38</ele><time>2026-05-02T19:39:17.000Z</time></trkpt>
      </trkseg>
  </trk>
</gpx>